Dati Storici

Data ora Umidita' aria (%) Temperatura aria (°C) Rad globale (W/m²) Gonioanemometro (°) Tacoanemometro (m/s) Pioggia (mm)
17-10-2012 02:00 88.4 % 10.741 2.266 2.286 0.452 0
17-10-2012 01:50 87.3 % 10.424 2.189 353.227 -0.005 0
17-10-2012 01:40 86.3 % 10.485 1.548 176.616 0.043 0
17-10-2012 01:30 86.4 % 10.951 1.65 189.873 0.146 0
17-10-2012 01:20 85.6 % 10.928 1.431 227.294 0.363 0
17-10-2012 01:10 86 % 11.409 2.073 7.723 -0.003 0
17-10-2012 01:00 86.2 % 11.063 1.367 343.222 0.833 0
17-10-2012 00:50 85.3 % 11.015 1.893 17.844 0.138 0
17-10-2012 00:40 84.3 % 11.123 1.611 26.763 0.444 0
17-10-2012 00:30 84.4 % 11.461 1.944 43.117 0.366 0
17-10-2012 00:20 81.7 % 11.279 1.177 14.992 0.347 0
17-10-2012 00:10 80.1 % 11.984 1.614 56.485 0.596 0
17-10-2012 00:00 78.8 % 12.301 1.114 291.515 0.256 0
16-10-2012 23:50 78.2 % 12.693 1.203 276.786 0.726 0
16-10-2012 23:40 78.3 % 12.955 1.639 279.194 0.617 0
16-10-2012 23:30 80.6 % 12.742 1.126 254.928 1.158 0
16-10-2012 23:20 84.7 % 12.13 1.511 1.19 0.748 0
16-10-2012 23:10 83.8 % 12.087 1.78 328.697 0.463 0
16-10-2012 23:00 81.3 % 11.841 1.648 300.002 0.401 0
16-10-2012 22:50 82.1 % 12.136 2.046 342.629 0.235 0

I dati sono presentati in modo automatico a scopo informativo. In seguito a verifica i dati possono subire modifiche o essere invalidati e non riportati negli archivi definitivi.